sensor_id;sensor_type;location;lat;lon;timestamp;P1;durP1;ratioP1;P2;durP2;ratioP2
43606;SDS011;29197;44.788;10.366;2023-10-13T00:02:28;14.80;;;9.20;;
43606;SDS011;29197;44.788;10.366;2023-10-13T00:05:17;16.77;;;10.32;;
43606;SDS011;29197;44.788;10.366;2023-10-13T00:08:06;20.80;;;11.80;;
43606;SDS011;29197;44.788;10.366;2023-10-13T00:10:55;18.80;;;10.98;;
43606;SDS011;29197;44.788;10.366;2023-10-13T00:13:46;17.48;;;9.20;;
43606;SDS011;29197;44.788;10.366;2023-10-13T00:16:39;15.07;;;9.07;;
43606;SDS011;29197;44.788;10.366;2023-10-13T00:19:28;18.25;;;11.50;;
43606;SDS011;29197;44.788;10.366;2023-10-13T00:22:24;17.73;;;11.80;;
43606;SDS011;29197;44.788;10.366;2023-10-13T00:25:14;21.92;;;13.18;;
43606;SDS011;29197;44.788;10.366;2023-10-13T00:28:13;17.35;;;12.07;;
43606;SDS011;29197;44.788;10.366;2023-10-13T00:31:10;18.92;;;12.32;;
43606;SDS011;29197;44.788;10.366;2023-10-13T00:34:02;21.55;;;12.65;;
43606;SDS011;29197;44.788;10.366;2023-10-13T00:37:05;20.90;;;11.13;;
43606;SDS011;29197;44.788;10.366;2023-10-13T00:40:06;20.73;;;12.13;;
43606;SDS011;29197;44.788;10.366;2023-10-13T00:43:11;16.30;;;10.60;;
43606;SDS011;29197;44.788;10.366;2023-10-13T00:46:18;15.27;;;9.77;;
43606;SDS011;29197;44.788;10.366;2023-10-13T00:49:08;17.15;;;9.68;;
43606;SDS011;29197;44.788;10.366;2023-10-13T00:51:57;14.02;;;9.35;;
43606;SDS011;29197;44.788;10.366;2023-10-13T00:54:46;18.40;;;8.27;;
43606;SDS011;29197;44.788;10.366;2023-10-13T00:57:35;20.73;;;10.38;;
43606;SDS011;29197;44.788;10.366;2023-10-13T01:00:24;16.08;;;9.52;;
43606;SDS011;29197;44.788;10.366;2023-10-13T01:03:15;12.02;;;7.82;;
43606;SDS011;29197;44.788;10.366;2023-10-13T01:06:14;13.55;;;8.57;;
43606;SDS011;29197;44.788;10.366;2023-10-13T01:09:04;9.90;;;6.93;;
43606;SDS011;29197;44.788;10.366;2023-10-13T01:11:59;10.43;;;6.78;;
43606;SDS011;29197;44.788;10.366;2023-10-13T01:14:49;12.65;;;6.60;;
43606;SDS011;29197;44.788;10.366;2023-10-13T01:17:36;10.57;;;6.53;;
43606;SDS011;29197;44.788;10.366;2023-10-13T01:20:25;9.68;;;6.60;;
43606;SDS011;29197;44.788;10.366;2023-10-13T01:23:14;10.30;;;5.88;;
43606;SDS011;29197;44.788;10.366;2023-10-13T01:26:06;9.52;;;6.25;;
43606;SDS011;29197;44.788;10.366;2023-10-13T01:28:56;8.50;;;5.38;;
43606;SDS011;29197;44.788;10.366;2023-10-13T01:31:46;9.10;;;5.88;;
43606;SDS011;29197;44.788;10.366;2023-10-13T01:34:34;9.13;;;5.93;;
43606;SDS011;29197;44.788;10.366;2023-10-13T01:37:24;9.88;;;6.88;;
43606;SDS011;29197;44.788;10.366;2023-10-13T01:40:14;12.00;;;6.82;;
43606;SDS011;29197;44.788;10.366;2023-10-13T01:43:06;9.55;;;7.15;;
43606;SDS011;29197;44.788;10.366;2023-10-13T01:45:57;11.68;;;8.32;;
43606;SDS011;29197;44.788;10.366;2023-10-13T01:48:45;12.55;;;6.50;;
43606;SDS011;29197;44.788;10.366;2023-10-13T01:51:34;13.38;;;7.13;;
43606;SDS011;29197;44.788;10.366;2023-10-13T01:54:26;10.55;;;7.07;;
43606;SDS011;29197;44.788;10.366;2023-10-13T01:57:16;9.70;;;6.50;;
43606;SDS011;29197;44.788;10.366;2023-10-13T02:00:06;8.00;;;5.85;;
43606;SDS011;29197;44.788;10.366;2023-10-13T02:03:05;11.15;;;7.25;;
43606;SDS011;29197;44.788;10.366;2023-10-13T02:06:01;9.55;;;7.18;;
43606;SDS011;29197;44.788;10.366;2023-10-13T02:08:51;9.95;;;7.40;;
43606;SDS011;29197;44.788;10.366;2023-10-13T02:11:44;12.90;;;6.43;;
43606;SDS011;29197;44.788;10.366;2023-10-13T02:14:35;10.45;;;6.68;;
43606;SDS011;29197;44.788;10.366;2023-10-13T02:17:24;10.32;;;6.80;;
43606;SDS011;29197;44.788;10.366;2023-10-13T02:20:13;10.35;;;6.53;;
43606;SDS011;29197;44.788;10.366;2023-10-13T02:23:02;11.27;;;6.20;;
43606;SDS011;29197;44.788;10.366;2023-10-13T02:25:59;10.38;;;6.40;;
43606;SDS011;29197;44.788;10.366;2023-10-13T02:28:58;9.48;;;7.07;;
43606;SDS011;29197;44.788;10.366;2023-10-13T02:31:49;9.73;;;7.10;;
43606;SDS011;29197;44.788;10.366;2023-10-13T02:34:42;10.55;;;6.65;;
43606;SDS011;29197;44.788;10.366;2023-10-13T02:37:31;10.15;;;6.03;;
43606;SDS011;29197;44.788;10.366;2023-10-13T02:40:22;10.45;;;6.40;;
43606;SDS011;29197;44.788;10.366;2023-10-13T02:43:10;9.73;;;6.78;;
43606;SDS011;29197;44.788;10.366;2023-10-13T02:45:59;8.90;;;5.75;;
43606;SDS011;29197;44.788;10.366;2023-10-13T02:48:49;10.52;;;6.78;;
43606;SDS011;29197;44.788;10.366;2023-10-13T02:51:40;10.43;;;6.95;;
43606;SDS011;29197;44.788;10.366;2023-10-13T02:54:29;8.27;;;6.28;;
43606;SDS011;29197;44.788;10.366;2023-10-13T02:57:18;14.50;;;7.10;;
43606;SDS011;29197;44.788;10.366;2023-10-13T03:00:06;12.63;;;6.72;;
43606;SDS011;29197;44.788;10.366;2023-10-13T03:02:59;13.57;;;7.15;;
43606;SDS011;29197;44.788;10.366;2023-10-13T03:05:50;13.48;;;7.30;;
43606;SDS011;29197;44.788;10.366;2023-10-13T03:08:39;11.82;;;7.63;;
43606;SDS011;29197;44.788;10.366;2023-10-13T03:11:27;9.52;;;7.38;;
43606;SDS011;29197;44.788;10.366;2023-10-13T03:14:20;11.05;;;6.10;;
43606;SDS011;29197;44.788;10.366;2023-10-13T03:17:13;16.70;;;7.22;;
43606;SDS011;29197;44.788;10.366;2023-10-13T03:20:04;11.32;;;7.20;;
43606;SDS011;29197;44.788;10.366;2023-10-13T03:22:59;8.40;;;6.60;;
43606;SDS011;29197;44.788;10.366;2023-10-13T03:25:56;8.00;;;6.38;;
43606;SDS011;29197;44.788;10.366;2023-10-13T03:28:54;11.70;;;7.15;;
43606;SDS011;29197;44.788;10.366;2023-10-13T03:31:44;9.10;;;6.57;;
43606;SDS011;29197;44.788;10.366;2023-10-13T03:34:33;9.55;;;6.68;;
43606;SDS011;29197;44.788;10.366;2023-10-13T03:37:27;16.27;;;7.35;;
43606;SDS011;29197;44.788;10.366;2023-10-13T03:40:26;15.57;;;7.85;;
43606;SDS011;29197;44.788;10.366;2023-10-13T03:43:22;9.15;;;6.60;;
43606;SDS011;29197;44.788;10.366;2023-10-13T03:46:11;12.07;;;6.72;;
43606;SDS011;29197;44.788;10.366;2023-10-13T03:49:00;13.10;;;7.43;;
43606;SDS011;29197;44.788;10.366;2023-10-13T03:51:53;12.13;;;6.18;;
43606;SDS011;29197;44.788;10.366;2023-10-13T03:54:44;11.50;;;6.25;;
43606;SDS011;29197;44.788;10.366;2023-10-13T03:57:35;10.00;;;6.70;;
43606;SDS011;29197;44.788;10.366;2023-10-13T04:00:26;9.98;;;6.63;;
43606;SDS011;29197;44.788;10.366;2023-10-13T04:03:15;17.92;;;8.10;;
43606;SDS011;29197;44.788;10.366;2023-10-13T04:06:05;11.32;;;6.97;;
43606;SDS011;29197;44.788;10.366;2023-10-13T04:08:54;12.20;;;7.25;;
43606;SDS011;29197;44.788;10.366;2023-10-13T04:11:57;15.25;;;7.38;;
43606;SDS011;29197;44.788;10.366;2023-10-13T04:15:05;13.40;;;8.63;;
43606;SDS011;29197;44.788;10.366;2023-10-13T04:18:08;18.70;;;7.22;;
43606;SDS011;29197;44.788;10.366;2023-10-13T04:21:17;9.70;;;6.82;;
43606;SDS011;29197;44.788;10.366;2023-10-13T04:24:16;10.73;;;7.35;;
43606;SDS011;29197;44.788;10.366;2023-10-13T04:27:25;10.98;;;6.40;;
43606;SDS011;29197;44.788;10.366;2023-10-13T04:30:26;11.67;;;7.33;;
43606;SDS011;29197;44.788;10.366;2023-10-13T04:33:26;11.48;;;7.72;;
43606;SDS011;29197;44.788;10.366;2023-10-13T04:36:31;12.60;;;7.78;;
43606;SDS011;29197;44.788;10.366;2023-10-13T04:39:34;10.65;;;7.00;;
43606;SDS011;29197;44.788;10.366;2023-10-13T04:42:25;12.65;;;7.75;;
43606;SDS011;29197;44.788;10.366;2023-10-13T04:45:36;12.07;;;7.35;;
43606;SDS011;29197;44.788;10.366;2023-10-13T04:48:40;10.13;;;7.03;;
43606;SDS011;29197;44.788;10.366;2023-10-13T04:51:34;11.50;;;7.40;;
43606;SDS011;29197;44.788;10.366;2023-10-13T05:15:21;10.40;;;7.25;;
43606;SDS011;29197;44.788;10.366;2023-10-13T05:18:27;13.15;;;7.35;;
43606;SDS011;29197;44.788;10.366;2023-10-13T05:21:34;9.18;;;6.93;;
43606;SDS011;29197;44.788;10.366;2023-10-13T05:24:43;12.63;;;7.75;;
43606;SDS011;29197;44.788;10.366;2023-10-13T05:27:49;14.65;;;8.52;;
43606;SDS011;29197;44.788;10.366;2023-10-13T05:31:09;11.27;;;8.55;;
43606;SDS011;29197;44.788;10.366;2023-10-13T05:34:16;13.23;;;7.95;;
43606;SDS011;29197;44.788;10.366;2023-10-13T05:37:22;13.30;;;7.75;;
43606;SDS011;29197;44.788;10.366;2023-10-13T05:40:29;12.50;;;8.73;;
43606;SDS011;29197;44.788;10.366;2023-10-13T05:43:38;12.02;;;7.55;;
43606;SDS011;29197;44.788;10.366;2023-10-13T05:46:46;11.32;;;6.95;;
43606;SDS011;29197;44.788;10.366;2023-10-13T05:49:48;11.73;;;7.03;;
43606;SDS011;29197;44.788;10.366;2023-10-13T05:52:41;8.68;;;6.30;;
43606;SDS011;29197;44.788;10.366;2023-10-13T05:55:47;10.18;;;6.68;;
43606;SDS011;29197;44.788;10.366;2023-10-13T05:58:53;8.48;;;6.38;;
43606;SDS011;29197;44.788;10.366;2023-10-13T06:02:16;15.18;;;7.53;;
43606;SDS011;29197;44.788;10.366;2023-10-13T06:05:23;13.93;;;7.97;;
43606;SDS011;29197;44.788;10.366;2023-10-13T06:08:30;16.23;;;8.15;;
43606;SDS011;29197;44.788;10.366;2023-10-13T06:11:36;12.68;;;7.57;;
43606;SDS011;29197;44.788;10.366;2023-10-13T06:14:44;18.35;;;7.90;;
43606;SDS011;29197;44.788;10.366;2023-10-13T06:17:52;8.43;;;6.65;;
43606;SDS011;29197;44.788;10.366;2023-10-13T06:21:01;9.07;;;6.68;;
43606;SDS011;29197;44.788;10.366;2023-10-13T06:24:07;13.18;;;7.68;;
43606;SDS011;29197;44.788;10.366;2023-10-13T06:27:14;11.85;;;7.13;;
43606;SDS011;29197;44.788;10.366;2023-10-13T06:30:20;13.38;;;7.05;;
43606;SDS011;29197;44.788;10.366;2023-10-13T06:33:11;12.95;;;8.27;;
43606;SDS011;29197;44.788;10.366;2023-10-13T06:36:00;12.02;;;7.15;;
43606;SDS011;29197;44.788;10.366;2023-10-13T06:38:50;12.15;;;7.10;;
43606;SDS011;29197;44.788;10.366;2023-10-13T06:42:05;12.10;;;7.15;;
43606;SDS011;29197;44.788;10.366;2023-10-13T06:44:54;12.45;;;8.05;;
43606;SDS011;29197;44.788;10.366;2023-10-13T06:47:43;13.68;;;7.38;;
43606;SDS011;29197;44.788;10.366;2023-10-13T06:50:33;11.50;;;6.68;;
43606;SDS011;29197;44.788;10.366;2023-10-13T06:53:28;12.30;;;6.95;;
43606;SDS011;29197;44.788;10.366;2023-10-13T06:56:23;10.85;;;6.97;;
43606;SDS011;29197;44.788;10.366;2023-10-13T06:59:15;8.70;;;6.68;;
43606;SDS011;29197;44.788;10.366;2023-10-13T07:02:04;12.57;;;7.15;;
43606;SDS011;29197;44.788;10.366;2023-10-13T07:05:13;13.32;;;7.30;;
43606;SDS011;29197;44.788;10.366;2023-10-13T07:08:04;12.00;;;6.63;;
43606;SDS011;29197;44.788;10.366;2023-10-13T07:10:53;13.40;;;7.70;;
43606;SDS011;29197;44.788;10.366;2023-10-13T07:13:52;14.63;;;7.45;;
43606;SDS011;29197;44.788;10.366;2023-10-13T07:16:42;15.70;;;7.20;;
43606;SDS011;29197;44.788;10.366;2023-10-13T07:19:33;10.15;;;6.15;;
43606;SDS011;29197;44.788;10.366;2023-10-13T07:22:32;15.45;;;7.13;;
43606;SDS011;29197;44.788;10.366;2023-10-13T07:25:28;12.20;;;6.53;;
43606;SDS011;29197;44.788;10.366;2023-10-13T07:28:19;15.43;;;7.28;;
43606;SDS011;29197;44.788;10.366;2023-10-13T07:31:08;10.82;;;6.03;;
43606;SDS011;29197;44.788;10.366;2023-10-13T07:34:01;10.43;;;5.88;;
43606;SDS011;29197;44.788;10.366;2023-10-13T07:36:59;10.55;;;6.43;;
43606;SDS011;29197;44.788;10.366;2023-10-13T07:39:54;11.65;;;6.55;;
43606;SDS011;29197;44.788;10.366;2023-10-13T07:42:47;11.77;;;6.40;;
43606;SDS011;29197;44.788;10.366;2023-10-13T07:45:36;10.88;;;5.80;;
43606;SDS011;29197;44.788;10.366;2023-10-13T07:48:25;10.35;;;5.50;;
43606;SDS011;29197;44.788;10.366;2023-10-13T07:51:14;11.65;;;5.93;;
43606;SDS011;29197;44.788;10.366;2023-10-13T07:54:03;10.63;;;6.18;;
43606;SDS011;29197;44.788;10.366;2023-10-13T07:56:55;7.95;;;5.78;;
43606;SDS011;29197;44.788;10.366;2023-10-13T07:59:45;9.20;;;6.20;;
43606;SDS011;29197;44.788;10.366;2023-10-13T08:02:38;8.63;;;6.05;;
43606;SDS011;29197;44.788;10.366;2023-10-13T08:05:36;6.82;;;5.45;;
43606;SDS011;29197;44.788;10.366;2023-10-13T08:08:43;10.75;;;6.20;;
43606;SDS011;29197;44.788;10.366;2023-10-13T08:11:33;9.32;;;6.13;;
43606;SDS011;29197;44.788;10.366;2023-10-13T08:14:24;13.00;;;6.72;;
43606;SDS011;29197;44.788;10.366;2023-10-13T08:17:26;15.13;;;6.88;;
43606;SDS011;29197;44.788;10.366;2023-10-13T08:20:18;12.98;;;7.30;;
43606;SDS011;29197;44.788;10.366;2023-10-13T08:23:08;8.48;;;5.82;;
43606;SDS011;29197;44.788;10.366;2023-10-13T08:26:09;10.27;;;5.88;;
43606;SDS011;29197;44.788;10.366;2023-10-13T08:29:16;10.70;;;6.10;;
43606;SDS011;29197;44.788;10.366;2023-10-13T08:32:22;9.38;;;5.65;;
43606;SDS011;29197;44.788;10.366;2023-10-13T08:35:24;10.50;;;6.97;;
43606;SDS011;29197;44.788;10.366;2023-10-13T08:38:21;14.25;;;6.70;;
43606;SDS011;29197;44.788;10.366;2023-10-13T08:41:17;9.25;;;5.95;;
43606;SDS011;29197;44.788;10.366;2023-10-13T08:44:18;9.93;;;6.15;;
43606;SDS011;29197;44.788;10.366;2023-10-13T08:47:31;10.35;;;6.50;;
43606;SDS011;29197;44.788;10.366;2023-10-13T08:50:24;11.68;;;6.85;;
43606;SDS011;29197;44.788;10.366;2023-10-13T08:53:34;9.10;;;6.30;;
43606;SDS011;29197;44.788;10.366;2023-10-13T08:56:32;9.20;;;6.60;;
43606;SDS011;29197;44.788;10.366;2023-10-13T08:59:21;13.20;;;7.35;;
43606;SDS011;29197;44.788;10.366;2023-10-13T09:02:20;9.77;;;6.15;;
43606;SDS011;29197;44.788;10.366;2023-10-13T09:05:09;9.85;;;6.38;;
43606;SDS011;29197;44.788;10.366;2023-10-13T09:08:25;11.05;;;6.38;;
43606;SDS011;29197;44.788;10.366;2023-10-13T09:11:21;9.65;;;5.78;;
43606;SDS011;29197;44.788;10.366;2023-10-13T09:14:13;12.15;;;6.30;;
43606;SDS011;29197;44.788;10.366;2023-10-13T09:17:20;13.48;;;5.53;;
43606;SDS011;29197;44.788;10.366;2023-10-13T09:20:29;10.70;;;5.57;;
43606;SDS011;29197;44.788;10.366;2023-10-13T09:23:30;9.00;;;5.47;;
43606;SDS011;29197;44.788;10.366;2023-10-13T09:26:33;9.95;;;5.72;;
43606;SDS011;29197;44.788;10.366;2023-10-13T09:29:23;9.07;;;5.40;;
43606;SDS011;29197;44.788;10.366;2023-10-13T09:32:12;10.20;;;6.13;;
43606;SDS011;29197;44.788;10.366;2023-10-13T09:35:01;9.43;;;6.38;;
43606;SDS011;29197;44.788;10.366;2023-10-13T09:37:49;12.73;;;6.97;;
43606;SDS011;29197;44.788;10.366;2023-10-13T09:40:44;9.93;;;7.70;;
43606;SDS011;29197;44.788;10.366;2023-10-13T09:43:37;9.57;;;5.57;;
43606;SDS011;29197;44.788;10.366;2023-10-13T09:46:26;9.48;;;5.47;;
43606;SDS011;29197;44.788;10.366;2023-10-13T09:49:16;8.77;;;5.43;;
43606;SDS011;29197;44.788;10.366;2023-10-13T09:52:31;12.18;;;5.93;;
43606;SDS011;29197;44.788;10.366;2023-10-13T09:55:21;9.60;;;6.03;;
43606;SDS011;29197;44.788;10.366;2023-10-13T09:58:14;8.93;;;5.43;;
43606;SDS011;29197;44.788;10.366;2023-10-13T10:01:06;10.30;;;6.20;;
43606;SDS011;29197;44.788;10.366;2023-10-13T10:03:55;8.13;;;5.88;;
43606;SDS011;29197;44.788;10.366;2023-10-13T10:06:56;10.93;;;5.40;;
43606;SDS011;29197;44.788;10.366;2023-10-13T10:09:55;10.73;;;6.38;;
43606;SDS011;29197;44.788;10.366;2023-10-13T10:12:44;16.10;;;6.43;;
43606;SDS011;29197;44.788;10.366;2023-10-13T10:15:40;8.55;;;5.25;;
43606;SDS011;29197;44.788;10.366;2023-10-13T10:18:33;8.00;;;4.85;;
43606;SDS011;29197;44.788;10.366;2023-10-13T10:21:22;8.93;;;5.85;;
43606;SDS011;29197;44.788;10.366;2023-10-13T10:24:22;7.93;;;5.88;;
43606;SDS011;29197;44.788;10.366;2023-10-13T10:27:23;9.32;;;5.43;;
43606;SDS011;29197;44.788;10.366;2023-10-13T10:30:12;16.30;;;7.05;;
43606;SDS011;29197;44.788;10.366;2023-10-13T10:33:02;11.07;;;6.32;;
43606;SDS011;29197;44.788;10.366;2023-10-13T10:35:59;15.27;;;7.57;;
43606;SDS011;29197;44.788;10.366;2023-10-13T10:38:51;9.25;;;5.63;;
43606;SDS011;29197;44.788;10.366;2023-10-13T10:41:45;9.05;;;6.13;;
43606;SDS011;29197;44.788;10.366;2023-10-13T10:44:40;7.40;;;5.75;;
43606;SDS011;29197;44.788;10.366;2023-10-13T10:47:29;10.85;;;6.55;;
43606;SDS011;29197;44.788;10.366;2023-10-13T10:50:26;9.23;;;5.32;;
43606;SDS011;29197;44.788;10.366;2023-10-13T10:53:21;8.52;;;4.60;;
43606;SDS011;29197;44.788;10.366;2023-10-13T10:56:22;6.13;;;4.22;;
43606;SDS011;29197;44.788;10.366;2023-10-13T10:59:12;6.22;;;4.80;;
43606;SDS011;29197;44.788;10.366;2023-10-13T11:02:06;6.57;;;4.47;;
43606;SDS011;29197;44.788;10.366;2023-10-13T11:04:55;5.82;;;4.45;;
43606;SDS011;29197;44.788;10.366;2023-10-13T11:07:46;6.03;;;3.95;;
43606;SDS011;29197;44.788;10.366;2023-10-13T11:10:45;11.73;;;5.82;;
43606;SDS011;29197;44.788;10.366;2023-10-13T11:13:40;12.10;;;6.53;;
43606;SDS011;29197;44.788;10.366;2023-10-13T11:16:37;8.18;;;5.78;;
43606;SDS011;29197;44.788;10.366;2023-10-13T11:19:38;8.60;;;4.97;;
43606;SDS011;29197;44.788;10.366;2023-10-13T11:22:27;6.70;;;4.97;;
43606;SDS011;29197;44.788;10.366;2023-10-13T11:25:30;7.78;;;5.47;;
43606;SDS011;29197;44.788;10.366;2023-10-13T11:28:22;7.10;;;4.28;;
43606;SDS011;29197;44.788;10.366;2023-10-13T11:31:15;7.25;;;4.70;;
43606;SDS011;29197;44.788;10.366;2023-10-13T11:34:06;8.18;;;5.43;;
43606;SDS011;29197;44.788;10.366;2023-10-13T11:37:01;7.82;;;4.47;;
43606;SDS011;29197;44.788;10.366;2023-10-13T11:40:11;10.77;;;5.35;;
43606;SDS011;29197;44.788;10.366;2023-10-13T11:43:23;7.57;;;4.20;;
43606;SDS011;29197;44.788;10.366;2023-10-13T11:46:13;7.32;;;4.25;;
43606;SDS011;29197;44.788;10.366;2023-10-13T11:49:05;10.45;;;4.50;;
43606;SDS011;29197;44.788;10.366;2023-10-13T11:52:03;4.35;;;3.13;;
43606;SDS011;29197;44.788;10.366;2023-10-13T11:55:05;5.15;;;4.30;;
43606;SDS011;29197;44.788;10.366;2023-10-13T11:57:54;9.77;;;4.90;;
43606;SDS011;29197;44.788;10.366;2023-10-13T12:00:47;5.72;;;4.43;;
43606;SDS011;29197;44.788;10.366;2023-10-13T12:03:41;3.83;;;3.35;;
43606;SDS011;29197;44.788;10.366;2023-10-13T12:06:48;4.18;;;3.08;;
43606;SDS011;29197;44.788;10.366;2023-10-13T12:09:50;6.93;;;3.45;;
43606;SDS011;29197;44.788;10.366;2023-10-13T12:12:53;10.00;;;4.43;;
43606;SDS011;29197;44.788;10.366;2023-10-13T12:15:42;4.53;;;3.65;;
43606;SDS011;29197;44.788;10.366;2023-10-13T12:18:40;7.35;;;4.25;;
43606;SDS011;29197;44.788;10.366;2023-10-13T12:21:32;6.65;;;3.30;;
43606;SDS011;29197;44.788;10.366;2023-10-13T12:24:24;5.60;;;3.45;;
43606;SDS011;29197;44.788;10.366;2023-10-13T12:27:26;5.28;;;3.53;;
43606;SDS011;29197;44.788;10.366;2023-10-13T12:30:22;6.65;;;3.67;;
43606;SDS011;29197;44.788;10.366;2023-10-13T12:33:23;8.15;;;4.43;;
43606;SDS011;29197;44.788;10.366;2023-10-13T12:36:15;6.55;;;4.10;;
43606;SDS011;29197;44.788;10.366;2023-10-13T12:39:17;5.50;;;3.40;;
43606;SDS011;29197;44.788;10.366;2023-10-13T12:42:23;6.28;;;4.03;;
43606;SDS011;29197;44.788;10.366;2023-10-13T12:45:32;5.82;;;4.15;;
43606;SDS011;29197;44.788;10.366;2023-10-13T12:48:38;5.35;;;4.25;;
43606;SDS011;29197;44.788;10.366;2023-10-13T12:51:46;6.82;;;3.70;;
43606;SDS011;29197;44.788;10.366;2023-10-13T12:54:41;7.10;;;4.60;;
43606;SDS011;29197;44.788;10.366;2023-10-13T12:57:33;7.65;;;4.40;;
43606;SDS011;29197;44.788;10.366;2023-10-13T13:00:30;7.47;;;4.97;;
43606;SDS011;29197;44.788;10.366;2023-10-13T13:03:20;5.63;;;3.65;;
43606;SDS011;29197;44.788;10.366;2023-10-13T13:06:16;4.63;;;3.42;;
43606;SDS011;29197;44.788;10.366;2023-10-13T13:09:13;5.05;;;3.25;;
43606;SDS011;29197;44.788;10.366;2023-10-13T13:12:02;8.02;;;4.72;;
43606;SDS011;29197;44.788;10.366;2023-10-13T13:14:53;5.68;;;4.03;;
43606;SDS011;29197;44.788;10.366;2023-10-13T13:17:42;5.22;;;3.75;;
43606;SDS011;29197;44.788;10.366;2023-10-13T13:20:32;7.72;;;4.18;;
43606;SDS011;29197;44.788;10.366;2023-10-13T13:23:25;4.00;;;3.60;;
43606;SDS011;29197;44.788;10.366;2023-10-13T13:26:16;7.00;;;3.95;;
43606;SDS011;29197;44.788;10.366;2023-10-13T13:29:05;6.78;;;3.97;;
43606;SDS011;29197;44.788;10.366;2023-10-13T13:31:56;7.22;;;3.78;;
43606;SDS011;29197;44.788;10.366;2023-10-13T13:34:47;10.73;;;4.40;;
43606;SDS011;29197;44.788;10.366;2023-10-13T13:37:44;8.43;;;4.55;;
43606;SDS011;29197;44.788;10.366;2023-10-13T13:40:33;6.25;;;4.07;;
43606;SDS011;29197;44.788;10.366;2023-10-13T13:43:24;7.40;;;4.18;;
43606;SDS011;29197;44.788;10.366;2023-10-13T13:46:25;6.82;;;4.30;;
43606;SDS011;29197;44.788;10.366;2023-10-13T13:49:19;4.80;;;3.33;;
43606;SDS011;29197;44.788;10.366;2023-10-13T13:52:15;6.05;;;4.15;;
43606;SDS011;29197;44.788;10.366;2023-10-13T13:55:08;10.90;;;4.78;;
43606;SDS011;29197;44.788;10.366;2023-10-13T13:57:57;9.00;;;4.30;;
43606;SDS011;29197;44.788;10.366;2023-10-13T14:00:47;6.32;;;3.97;;
43606;SDS011;29197;44.788;10.366;2023-10-13T14:03:38;6.28;;;4.05;;
43606;SDS011;29197;44.788;10.366;2023-10-13T14:06:32;6.05;;;3.95;;
43606;SDS011;29197;44.788;10.366;2023-10-13T14:09:21;5.43;;;3.58;;
43606;SDS011;29197;44.788;10.366;2023-10-13T14:12:23;7.13;;;5.10;;
43606;SDS011;29197;44.788;10.366;2023-10-13T14:15:22;5.40;;;3.42;;
43606;SDS011;29197;44.788;10.366;2023-10-13T14:18:13;5.88;;;3.70;;
43606;SDS011;29197;44.788;10.366;2023-10-13T14:21:04;7.43;;;4.10;;
43606;SDS011;29197;44.788;10.366;2023-10-13T14:23:53;9.20;;;4.50;;
43606;SDS011;29197;44.788;10.366;2023-10-13T14:26:42;9.77;;;4.88;;
43606;SDS011;29197;44.788;10.366;2023-10-13T14:29:31;6.53;;;4.68;;
43606;SDS011;29197;44.788;10.366;2023-10-13T14:32:20;9.63;;;5.38;;
43606;SDS011;29197;44.788;10.366;2023-10-13T14:35:15;6.75;;;3.85;;
43606;SDS011;29197;44.788;10.366;2023-10-13T14:38:05;8.48;;;4.70;;
43606;SDS011;29197;44.788;10.366;2023-10-13T14:40:56;6.40;;;3.90;;
43606;SDS011;29197;44.788;10.366;2023-10-13T14:43:45;6.28;;;3.60;;
43606;SDS011;29197;44.788;10.366;2023-10-13T14:46:35;6.85;;;3.92;;
43606;SDS011;29197;44.788;10.366;2023-10-13T14:49:26;4.82;;;3.78;;
43606;SDS011;29197;44.788;10.366;2023-10-13T14:52:16;5.55;;;4.07;;
43606;SDS011;29197;44.788;10.366;2023-10-13T14:55:07;5.88;;;4.07;;
43606;SDS011;29197;44.788;10.366;2023-10-13T14:58:05;8.10;;;4.55;;
43606;SDS011;29197;44.788;10.366;2023-10-13T15:00:55;9.40;;;5.22;;
43606;SDS011;29197;44.788;10.366;2023-10-13T15:03:47;8.93;;;4.07;;
43606;SDS011;29197;44.788;10.366;2023-10-13T15:06:36;5.50;;;4.32;;
43606;SDS011;29197;44.788;10.366;2023-10-13T15:09:26;8.10;;;4.28;;
43606;SDS011;29197;44.788;10.366;2023-10-13T15:12:15;6.75;;;4.22;;
43606;SDS011;29197;44.788;10.366;2023-10-13T15:15:11;8.30;;;4.60;;
43606;SDS011;29197;44.788;10.366;2023-10-13T15:18:06;6.90;;;4.47;;
43606;SDS011;29197;44.788;10.366;2023-10-13T15:20:55;6.50;;;4.55;;
43606;SDS011;29197;44.788;10.366;2023-10-13T15:23:44;7.88;;;4.45;;
43606;SDS011;29197;44.788;10.366;2023-10-13T15:26:34;6.65;;;4.60;;
43606;SDS011;29197;44.788;10.366;2023-10-13T15:29:25;9.00;;;4.75;;
43606;SDS011;29197;44.788;10.366;2023-10-13T15:32:22;8.65;;;4.90;;
43606;SDS011;29197;44.788;10.366;2023-10-13T15:35:29;10.48;;;5.45;;
43606;SDS011;29197;44.788;10.366;2023-10-13T15:38:18;6.38;;;4.43;;
43606;SDS011;29197;44.788;10.366;2023-10-13T15:41:09;6.50;;;4.57;;
43606;SDS011;29197;44.788;10.366;2023-10-13T15:43:59;9.68;;;4.18;;
43606;SDS011;29197;44.788;10.366;2023-10-13T15:46:48;9.45;;;4.75;;
43606;SDS011;29197;44.788;10.366;2023-10-13T15:49:57;7.60;;;5.15;;
43606;SDS011;29197;44.788;10.366;2023-10-13T15:52:50;7.47;;;4.90;;
43606;SDS011;29197;44.788;10.366;2023-10-13T15:55:39;10.77;;;4.90;;
43606;SDS011;29197;44.788;10.366;2023-10-13T15:58:32;10.20;;;4.93;;
43606;SDS011;29197;44.788;10.366;2023-10-13T16:01:23;7.00;;;5.13;;
43606;SDS011;29197;44.788;10.366;2023-10-13T16:04:12;9.48;;;5.82;;
43606;SDS011;29197;44.788;10.366;2023-10-13T16:07:02;9.10;;;6.07;;
43606;SDS011;29197;44.788;10.366;2023-10-13T16:09:51;9.57;;;6.20;;
43606;SDS011;29197;44.788;10.366;2023-10-13T16:12:46;9.05;;;5.60;;
43606;SDS011;29197;44.788;10.366;2023-10-13T16:15:35;10.07;;;5.30;;
43606;SDS011;29197;44.788;10.366;2023-10-13T16:18:31;10.00;;;4.90;;
43606;SDS011;29197;44.788;10.366;2023-10-13T16:21:20;7.65;;;5.28;;
43606;SDS011;29197;44.788;10.366;2023-10-13T16:24:10;7.10;;;4.82;;
43606;SDS011;29197;44.788;10.366;2023-10-13T16:27:04;8.32;;;4.82;;
43606;SDS011;29197;44.788;10.366;2023-10-13T16:29:53;8.68;;;4.72;;
43606;SDS011;29197;44.788;10.366;2023-10-13T16:32:42;16.13;;;7.32;;
43606;SDS011;29197;44.788;10.366;2023-10-13T16:35:41;13.10;;;5.82;;
43606;SDS011;29197;44.788;10.366;2023-10-13T16:38:33;8.25;;;5.20;;
43606;SDS011;29197;44.788;10.366;2023-10-13T16:41:22;11.30;;;6.43;;
43606;SDS011;29197;44.788;10.366;2023-10-13T16:44:11;8.15;;;5.38;;
43606;SDS011;29197;44.788;10.366;2023-10-13T16:47:00;9.25;;;5.35;;
43606;SDS011;29197;44.788;10.366;2023-10-13T16:49:51;8.40;;;5.22;;
43606;SDS011;29197;44.788;10.366;2023-10-13T16:52:41;9.85;;;4.60;;
43606;SDS011;29197;44.788;10.366;2023-10-13T16:55:32;6.28;;;4.03;;
43606;SDS011;29197;44.788;10.366;2023-10-13T16:58:21;4.63;;;3.50;;
43606;SDS011;29197;44.788;10.366;2023-10-13T17:01:10;6.43;;;4.38;;
43606;SDS011;29197;44.788;10.366;2023-10-13T17:04:00;10.07;;;4.38;;
43606;SDS011;29197;44.788;10.366;2023-10-13T17:06:51;9.50;;;4.80;;
43606;SDS011;29197;44.788;10.366;2023-10-13T17:09:42;7.40;;;3.92;;
43606;SDS011;29197;44.788;10.366;2023-10-13T17:12:32;9.25;;;4.47;;
43606;SDS011;29197;44.788;10.366;2023-10-13T17:15:21;7.15;;;4.25;;
43606;SDS011;29197;44.788;10.366;2023-10-13T17:18:10;6.70;;;3.72;;
43606;SDS011;29197;44.788;10.366;2023-10-13T17:20:59;8.38;;;4.25;;
43606;SDS011;29197;44.788;10.366;2023-10-13T17:23:48;6.45;;;3.72;;
43606;SDS011;29197;44.788;10.366;2023-10-13T17:26:39;6.22;;;3.53;;
43606;SDS011;29197;44.788;10.366;2023-10-13T17:29:28;7.43;;;3.90;;
43606;SDS011;29197;44.788;10.366;2023-10-13T17:32:17;7.75;;;3.55;;